createdAt,value
2023-01-29T04:03:22.285Z,100031.25
2023-01-29T04:06:35.111Z,100023.47
2023-01-29T04:09:51.991Z,100018.78
2023-01-29T04:13:06.832Z,100022.44
2023-01-29T04:16:20.441Z,100027.47
2023-01-29T04:19:40.758Z,100020.53
2023-01-29T04:22:53.002Z,100014.06
2023-01-29T04:26:21.590Z,100022.94
2023-01-29T04:29:41.451Z,100001.41
2023-01-29T04:33:04.024Z,99994.53
2023-01-29T04:36:27.900Z,99992.44
2023-01-29T04:39:45.931Z,100000.00
2023-01-29T04:43:05.032Z,100001.31
2023-01-29T04:46:18.379Z,99998.00
2023-01-29T04:49:36.338Z,100004.78
2023-01-29T04:52:52.147Z,100000.91
2023-01-29T04:56:10.600Z,99994.53
2023-01-29T04:59:26.234Z,100002.03
2023-01-29T05:02:39.192Z,100007.69
2023-01-29T05:05:51.621Z,100016.66
2023-01-29T05:09:04.107Z,100009.50
2023-01-29T05:12:16.827Z,100010.78
2023-01-29T05:15:31.326Z,100008.38
2023-01-29T05:18:41.076Z,100019.81
2023-01-29T05:21:51.486Z,100012.47
2023-01-29T05:25:02.361Z,100014.75
2023-01-29T05:28:16.360Z,100016.56
2023-01-29T05:31:26.027Z,100018.47
2023-01-29T05:34:35.771Z,100015.81
2023-01-29T05:37:45.576Z,99999.91
2023-01-29T05:40:59.734Z,100013.75
2023-01-29T05:44:10.614Z,100004.47
2023-01-29T05:47:20.666Z,99997.34
2023-01-29T05:50:30.259Z,100002.38
2023-01-29T05:53:39.821Z,100003.78
2023-01-29T05:56:50.749Z,100007.13
2023-01-29T06:00:00.270Z,99990.72
2023-01-29T08:14:39.907Z,100030.47
2023-01-29T08:17:57.722Z,100026.38
2023-01-29T08:21:07.812Z,100026.97
2023-01-29T08:24:17.589Z,100030.66
2023-01-29T08:27:27.503Z,100028.09
2023-01-29T08:30:38.433Z,100030.03
2023-01-29T08:33:48.302Z,100035.22
2023-01-29T08:36:58.044Z,100034.19
2023-01-29T08:40:09.374Z,100041.34
2023-01-29T08:43:18.939Z,100039.84
2023-01-29T08:46:29.930Z,100030.66
2023-01-29T08:49:39.574Z,100022.53
2023-01-29T08:52:49.135Z,100013.41
2023-01-29T08:55:58.841Z,100006.00
2023-01-29T08:59:08.360Z,99998.41
2023-01-29T09:02:19.214Z,99993.81
2023-01-29T09:05:29.746Z,99989.31
2023-01-29T09:08:40.001Z,100004.97
2023-01-29T09:11:49.616Z,100026.34
2023-01-29T09:14:59.215Z,100029.63
2023-01-29T09:18:10.245Z,100026.09
2023-01-29T09:21:19.835Z,100032.34
2023-01-29T09:24:29.842Z,100028.03
2023-01-29T09:27:39.535Z,100042.19
2023-01-29T09:30:49.327Z,100048.56
2023-01-29T09:34:00.257Z,100053.09
2023-01-29T09:37:09.855Z,100047.75
2023-01-29T09:40:33.962Z,100050.03
2023-01-29T09:43:49.973Z,100053.97
2023-01-29T09:47:05.980Z,100053.44
2023-01-29T09:50:22.712Z,100047.00
2023-01-29T09:53:40.173Z,100044.47
2023-01-29T09:56:53.598Z,100055.75
2023-01-29T10:00:03.184Z,100046.38
2023-01-29T10:03:35.775Z,100050.28
2023-01-29T10:07:02.352Z,100059.69
2023-01-29T10:10:26.754Z,100059.78
2023-01-29T10:13:53.038Z,100049.19
2023-01-29T10:17:17.981Z,100052.50
2023-01-29T10:20:48.987Z,100048.06
2023-01-29T10:24:13.525Z,100039.56
2023-01-29T10:27:24.019Z,100037.97
2023-01-29T10:30:37.693Z,100034.13
2023-01-29T10:34:01.579Z,100032.38
2023-01-29T10:37:18.419Z,100034.31
2023-01-29T10:40:38.907Z,100036.09
2023-01-29T10:43:59.868Z,100026.78
2023-01-29T10:47:30.378Z,100016.75
2023-01-29T10:50:52.348Z,100002.22
2023-01-29T10:54:18.106Z,99979.22
2023-01-29T10:57:41.796Z,99980.69
2023-01-29T11:00:52.425Z,99979.78
2023-01-29T11:04:04.036Z,99964.41
2023-01-29T11:07:16.616Z,99956.41
2023-01-29T11:10:26.898Z,99944.22
2023-01-29T11:13:43.547Z,99929.75
2023-01-29T11:16:53.452Z,99926.75
2023-01-29T11:20:03.627Z,99919.69
2023-01-29T11:23:28.384Z,99913.78
2023-01-29T11:26:41.413Z,99919.47
2023-01-29T11:29:53.873Z,99898.56
2023-01-29T11:33:11.086Z,99896.94
2023-01-29T11:36:28.568Z,99890.06
2023-01-29T11:39:44.881Z,99895.81
2023-01-29T11:42:54.606Z,99895.09
2023-01-29T11:46:08.022Z,99897.03
2023-01-29T11:49:29.311Z,99893.41
2023-01-29T11:52:42.039Z,99883.78
2023-01-29T11:55:52.546Z,99885.59
2023-01-29T11:59:04.460Z,99870.78
2023-01-29T12:02:22.676Z,99873.44
2023-01-29T12:05:32.368Z,99870.66
2023-01-29T12:08:42.091Z,99871.44
2023-01-29T12:11:52.540Z,99871.41
2023-01-29T12:15:06.515Z,99865.97
2023-01-29T12:18:26.825Z,99863.78
2023-01-29T12:21:47.031Z,99855.94
2023-01-29T12:25:02.827Z,99848.09
2023-01-29T12:28:24.751Z,99839.44
2023-01-29T12:32:06.811Z,99836.53
2023-01-29T12:35:22.566Z,99837.69
2023-01-29T12:38:32.168Z,99830.16
2023-01-29T12:41:46.266Z,99811.56
2023-01-29T12:45:00.189Z,99802.38
2023-01-29T12:53:42.817Z,99803.56
2023-01-29T12:57:09.574Z,99800.84
2023-01-29T13:00:23.460Z,99796.69
2023-01-29T13:03:43.217Z,99797.41
2023-01-29T13:06:56.263Z,99795.94
2023-01-29T13:10:12.759Z,99781.41
2023-01-29T13:13:31.334Z,99778.81
2023-01-29T13:16:46.538Z,99779.88
2023-01-29T13:19:59.188Z,99786.31
2023-01-29T13:23:17.814Z,99775.34
2023-01-29T13:26:28.156Z,99778.81
2023-01-29T13:29:39.079Z,99778.78
2023-01-29T13:32:53.184Z,99774.28
2023-01-29T13:36:03.380Z,99756.59
2023-01-29T13:39:23.835Z,99760.00
2023-01-29T13:42:41.292Z,99760.31
2023-01-29T13:45:54.377Z,99752.63
2023-01-29T13:49:05.058Z,99756.06
2023-01-29T13:52:18.427Z,99758.75
2023-01-29T13:55:32.176Z,99757.72
2023-01-29T13:58:54.446Z,99747.81
2023-01-29T14:02:21.168Z,99751.84
2023-01-29T14:05:40.127Z,99742.63
2023-01-29T14:08:49.802Z,99735.06
2023-01-29T14:11:59.676Z,99728.09
2023-01-29T14:15:21.340Z,99724.84
2023-01-29T14:18:35.338Z,99716.09
2023-01-29T14:21:51.228Z,99717.41
2023-01-29T14:25:04.440Z,99711.53
2023-01-29T14:28:20.314Z,99713.56
2023-01-29T14:31:40.977Z,99713.56
2023-01-29T14:34:56.124Z,99725.44
2023-01-29T14:38:07.817Z,99716.13
2023-01-29T14:41:27.674Z,99716.53
2023-01-29T14:44:49.275Z,99714.44
2023-01-29T14:48:02.376Z,99714.34
2023-01-29T14:51:16.056Z,99712.91
2023-01-29T14:54:30.516Z,99701.63
2023-01-29T14:57:40.271Z,99706.78
2023-01-29T15:00:54.533Z,99707.56
2023-01-29T15:04:07.471Z,99707.59
2023-01-29T15:07:29.007Z,99699.69
2023-01-29T15:10:41.259Z,99704.25
2023-01-29T15:13:57.698Z,99705.53
2023-01-29T15:17:19.409Z,99694.69
2023-01-29T15:20:32.321Z,99691.41
2023-01-29T15:23:44.337Z,99699.56
2023-01-29T15:26:55.128Z,99687.44
2023-01-29T15:30:08.464Z,99687.25
2023-01-29T15:33:18.092Z,99686.72
2023-01-29T15:36:30.616Z,99678.19
2023-01-29T15:39:44.979Z,99677.78
2023-01-29T15:42:54.749Z,99677.78
2023-01-29T15:46:11.551Z,99675.84
2023-01-29T15:49:30.327Z,99679.53
2023-01-29T15:52:40.463Z,99674.03
2023-01-29T15:55:51.824Z,99670.16
2023-01-29T15:59:09.658Z,99668.31
2023-01-29T16:02:22.565Z,99667.72
2023-01-29T16:05:33.774Z,99661.72
2023-01-29T16:08:47.734Z,99650.06
2023-01-29T16:11:59.714Z,99655.78
2023-01-29T16:15:22.895Z,99647.47
2023-01-29T16:18:36.387Z,99647.03
2023-01-29T16:21:47.005Z,99651.31
2023-01-29T16:24:57.448Z,99650.53
2023-01-29T16:28:10.962Z,99652.06
2023-01-29T16:31:24.725Z,99657.03
2023-01-29T16:34:37.615Z,99655.66
2023-01-29T16:37:49.379Z,99655.56
2023-01-29T16:41:08.970Z,99656.06
2023-01-29T16:44:36.034Z,99656.88
2023-01-29T16:47:46.052Z,99654.28
2023-01-29T16:51:05.260Z,99657.69
2023-01-29T16:54:18.257Z,99651.88
2023-01-29T16:57:31.921Z,99663.75
2023-01-29T17:00:46.802Z,99672.72
2023-01-29T17:04:01.799Z,99677.69
2023-01-29T17:07:17.283Z,99684.13
2023-01-29T17:10:29.862Z,99688.38
2023-01-29T17:13:42.722Z,99685.31
2023-01-29T17:16:56.001Z,99691.78
2023-01-29T17:20:14.881Z,99691.78
2023-01-29T17:23:24.924Z,99703.31
2023-01-29T17:26:34.674Z,99700.66
2023-01-29T17:29:44.379Z,99712.16
2023-01-29T17:32:55.335Z,99712.94
2023-01-29T17:36:05.151Z,99715.25
2023-01-29T17:39:19.354Z,99709.09
2023-01-29T17:42:29.471Z,99710.50
2023-01-29T17:45:39.917Z,99712.50
2023-01-29T17:48:51.150Z,99710.25
2023-01-29T17:52:01.122Z,99703.56
2023-01-29T17:55:11.673Z,99707.22
2023-01-29T17:58:23.786Z,99699.78
2023-01-29T18:01:33.381Z,99703.41
2023-01-29T18:04:44.311Z,99701.50
2023-01-29T18:07:54.725Z,99703.47
2023-01-29T18:11:04.647Z,99700.69
2023-01-29T18:14:14.800Z,99703.25
2023-01-29T18:17:24.576Z,99702.13
2023-01-29T18:20:38.397Z,99700.19
2023-01-29T18:23:48.193Z,99702.91
2023-01-29T18:26:57.995Z,99687.47
2023-01-29T18:30:09.032Z,99685.78
2023-01-29T18:33:18.968Z,99684.00
2023-01-29T18:36:32.409Z,99683.88
2023-01-29T18:39:42.014Z,99679.28
2023-01-29T18:42:51.879Z,99682.19
2023-01-29T18:46:01.494Z,99682.47
2023-01-29T18:49:11.803Z,99671.38
2023-01-29T18:52:22.935Z,99668.06
2023-01-29T18:55:32.647Z,99673.91
2023-01-29T18:58:45.915Z,99671.59
2023-01-29T19:02:02.677Z,99663.66
2023-01-29T19:05:12.637Z,99662.72
2023-01-29T19:08:23.705Z,99664.84
2023-01-29T19:11:33.273Z,99661.31
2023-01-29T19:14:43.189Z,99660.72
2023-01-29T19:17:52.935Z,99660.72
2023-01-29T19:21:10.400Z,99661.91
2023-01-29T19:24:21.444Z,99659.09
2023-01-29T19:27:31.401Z,99654.88
2023-01-29T19:30:41.193Z,99648.41
2023-01-29T19:33:50.833Z,99647.19
2023-01-29T19:37:00.758Z,99658.69
2023-01-29T19:40:12.417Z,99662.09
2023-01-29T19:43:22.103Z,99658.69
2023-01-29T19:46:31.916Z,99640.25
2023-01-29T19:49:41.601Z,99643.56
2023-01-29T19:52:52.678Z,99643.47
2023-01-29T19:56:05.723Z,99638.34
2023-01-29T19:59:15.477Z,99638.34
2023-01-29T20:02:25.702Z,99635.59
2023-01-29T20:05:37.499Z,99630.75
2023-01-29T20:08:47.367Z,99634.59
2023-01-29T20:11:58.460Z,99644.28
2023-01-29T20:15:08.673Z,99645.38
2023-01-29T20:18:18.958Z,99645.97
2023-01-29T20:21:28.671Z,99644.00
2023-01-29T20:24:42.093Z,99639.41
2023-01-29T20:27:52.937Z,99635.38
2023-01-29T20:31:03.089Z,99637.72
2023-01-29T20:34:13.127Z,99652.13
2023-01-29T20:37:22.812Z,99647.38
2023-01-29T20:40:32.481Z,99651.91
2023-01-29T20:43:44.170Z,99639.75
2023-01-29T20:46:53.798Z,99634.41
2023-01-29T20:50:08.458Z,99626.34
2023-01-29T20:53:18.427Z,99612.22
2023-01-29T20:56:36.966Z,99613.41
2023-01-29T20:59:52.691Z,99609.91
2023-01-29T21:03:02.530Z,99592.66
2023-01-29T21:06:12.467Z,99581.91
2023-01-29T21:09:22.250Z,99589.50
2023-01-29T21:12:31.840Z,99576.91
2023-01-29T21:15:44.481Z,99575.50
